createdAt,value
2022-12-08T00:01:12.644Z,37.30
2022-12-08T00:03:39.435Z,31.23
2022-12-08T00:06:25.926Z,36.50
2022-12-08T00:09:10.832Z,30.83
2022-12-08T00:11:37.369Z,35.27
2022-12-08T00:14:03.735Z,32.50
2022-12-08T00:16:30.109Z,31.60
2022-12-08T00:18:56.493Z,33.70
2022-12-08T00:21:22.818Z,36.27
2022-12-08T00:23:55.070Z,37.30
2022-12-08T00:26:21.901Z,32.00
2022-12-08T00:28:48.464Z,30.93
2022-12-08T00:31:17.644Z,33.57
2022-12-08T00:33:44.032Z,30.80
2022-12-08T00:36:13.231Z,36.80
2022-12-08T00:38:40.009Z,35.33
2022-12-08T00:41:14.926Z,41.53
2022-12-08T00:43:42.126Z,27.83
2022-12-08T00:46:08.600Z,29.57
2022-12-08T00:48:35.254Z,31.70
2022-12-08T00:51:01.830Z,30.57
2022-12-08T00:53:28.186Z,32.13
2022-12-08T00:55:54.533Z,31.07
2022-12-08T00:58:20.842Z,28.90
2022-12-08T01:00:47.258Z,32.80
2022-12-08T01:03:13.690Z,33.93
2022-12-08T01:05:40.046Z,37.23
2022-12-08T01:08:07.909Z,33.03
2022-12-08T01:10:39.424Z,30.80
2022-12-08T01:13:06.154Z,29.10
2022-12-08T01:15:32.463Z,27.90
2022-12-08T01:17:59.014Z,30.43
2022-12-08T01:20:25.389Z,29.80
2022-12-08T01:22:51.943Z,30.20
2022-12-08T01:25:18.445Z,27.53
2022-12-08T01:27:44.978Z,31.43
2022-12-08T01:30:13.145Z,26.43
2022-12-08T01:32:39.500Z,32.77
2022-12-08T01:35:05.922Z,28.83
2022-12-08T01:37:32.227Z,34.70
2022-12-08T01:39:58.748Z,30.33
2022-12-08T01:42:27.814Z,29.97
2022-12-08T01:45:06.805Z,31.17
2022-12-08T01:47:46.165Z,28.40
2022-12-08T01:50:15.912Z,30.77
2022-12-08T01:53:04.331Z,25.90
2022-12-08T01:55:49.204Z,30.23
2022-12-08T01:58:26.617Z,29.40
2022-12-08T02:00:53.115Z,23.97
2022-12-08T02:03:28.060Z,28.03
2022-12-08T02:05:54.721Z,32.90
2022-12-08T02:08:22.754Z,30.57
2022-12-08T02:10:52.234Z,31.23
2022-12-08T02:13:21.411Z,25.07
2022-12-08T02:16:01.540Z,31.27
2022-12-08T02:19:08.025Z,31.57
2022-12-08T02:21:55.722Z,30.27
2022-12-08T02:24:38.877Z,32.70
2022-12-08T02:27:25.889Z,28.63
2022-12-08T02:30:23.781Z,29.63
2022-12-08T02:33:05.318Z,24.60
2022-12-08T02:35:43.995Z,27.03
2022-12-08T02:38:19.437Z,24.03
2022-12-08T02:41:01.047Z,27.40
2022-12-08T02:43:50.595Z,26.07
2022-12-08T02:46:31.107Z,28.53
2022-12-08T02:48:58.984Z,24.90
2022-12-08T02:51:25.553Z,32.00
2022-12-08T02:53:52.513Z,24.47
2022-12-08T02:56:43.087Z,27.87
2022-12-08T02:59:28.504Z,26.70
2022-12-08T03:02:07.130Z,28.47
2022-12-08T03:04:44.654Z,27.77
2022-12-08T03:07:21.967Z,24.03
2022-12-08T03:09:56.415Z,24.37
2022-12-08T03:12:34.950Z,25.37
2022-12-08T03:15:09.366Z,30.33
2022-12-08T03:17:38.369Z,26.90
2022-12-08T03:20:09.624Z,28.80
2022-12-08T03:22:38.530Z,31.77
2022-12-08T03:25:05.798Z,25.80
2022-12-08T03:27:32.645Z,23.20
2022-12-08T03:30:00.729Z,28.47
2022-12-08T03:32:39.214Z,30.00
2022-12-08T03:35:09.394Z,31.57
2022-12-08T03:37:37.830Z,27.07
2022-12-08T03:40:06.679Z,32.30
2022-12-08T03:42:33.239Z,27.20
2022-12-08T03:44:59.700Z,24.57
2022-12-08T03:47:26.358Z,29.87
2022-12-08T03:49:52.663Z,27.40
2022-12-08T03:52:18.986Z,27.57
2022-12-08T03:54:45.325Z,29.50
2022-12-08T03:57:11.720Z,25.83
2022-12-08T03:59:38.059Z,24.80
2022-12-08T04:02:04.399Z,27.63
2022-12-08T04:04:31.098Z,26.90
2022-12-08T04:06:57.450Z,27.63
2022-12-08T04:09:23.813Z,25.23
2022-12-08T04:11:50.162Z,24.43
2022-12-08T04:14:16.587Z,26.67
2022-12-08T04:16:42.936Z,29.40
2022-12-08T04:19:09.317Z,28.40
2022-12-08T04:21:35.637Z,30.20
2022-12-08T04:24:02.436Z,26.60
2022-12-08T04:26:29.008Z,25.50
2022-12-08T04:28:55.338Z,33.30
2022-12-08T04:31:21.752Z,26.43
2022-12-08T04:33:48.594Z,28.73
2022-12-08T04:36:15.163Z,30.23
2022-12-08T04:38:41.486Z,32.43
2022-12-08T04:41:07.912Z,26.70
2022-12-08T04:43:35.366Z,25.67
2022-12-08T04:46:01.701Z,25.73
2022-12-08T04:48:28.114Z,25.93
2022-12-08T04:50:54.465Z,28.00
2022-12-08T04:53:21.239Z,22.73
2022-12-08T04:55:49.512Z,26.77
2022-12-08T04:58:19.017Z,22.17
2022-12-08T05:00:46.835Z,22.40
2022-12-08T05:03:14.520Z,28.57
2022-12-08T05:05:41.959Z,21.87
2022-12-08T05:08:09.626Z,30.77
2022-12-08T05:10:36.366Z,26.83
2022-12-08T05:13:02.790Z,22.10
2022-12-08T05:15:29.150Z,26.60
2022-12-08T05:17:55.503Z,26.87
2022-12-08T05:20:21.986Z,24.77
2022-12-08T05:22:48.349Z,29.33
2022-12-08T05:25:14.967Z,25.53
2022-12-08T05:27:41.937Z,25.50
2022-12-08T05:30:08.431Z,28.07
2022-12-08T05:32:34.808Z,19.33
2022-12-08T05:35:01.140Z,37.43
2022-12-08T05:37:27.472Z,27.30
2022-12-08T05:39:53.781Z,24.47
2022-12-08T05:42:24.618Z,26.07
2022-12-08T05:44:51.462Z,28.97
2022-12-08T05:47:17.805Z,27.53
2022-12-08T05:49:44.837Z,26.70
2022-12-08T05:52:11.197Z,27.37
2022-12-08T05:54:38.032Z,29.60
2022-12-08T05:57:04.445Z,26.53
2022-12-08T05:59:30.753Z,29.77
2022-12-08T06:01:57.150Z,24.80
2022-12-08T06:04:23.515Z,26.50
2022-12-08T06:06:49.831Z,33.70
2022-12-08T06:09:16.345Z,29.57
2022-12-08T06:11:42.845Z,34.30
2022-12-08T06:14:14.441Z,28.90
2022-12-08T06:16:40.974Z,36.27
2022-12-08T06:19:07.463Z,34.63
2022-12-08T06:21:34.061Z,28.60
2022-12-08T06:24:00.396Z,28.47
2022-12-08T06:26:26.817Z,30.30
2022-12-08T06:28:53.164Z,29.23
2022-12-08T06:31:25.690Z,28.90
2022-12-08T06:33:53.550Z,40.60
2022-12-08T06:36:23.194Z,27.53
2022-12-08T06:38:49.641Z,28.10
2022-12-08T06:41:16.552Z,31.53
2022-12-08T06:43:43.214Z,27.03
2022-12-08T06:46:13.138Z,35.33
2022-12-08T06:48:39.749Z,26.73
2022-12-08T06:51:08.087Z,31.10
2022-12-08T06:53:34.613Z,25.13
2022-12-08T06:56:01.134Z,30.33
2022-12-08T06:58:27.466Z,32.27
2022-12-08T07:00:53.989Z,32.83
2022-12-08T07:03:20.520Z,32.97
2022-12-08T07:05:47.073Z,31.60
2022-12-08T07:08:13.538Z,47.43
2022-12-08T07:10:39.958Z,37.23
2022-12-08T07:13:06.290Z,29.40
2022-12-08T07:15:32.615Z,35.07
2022-12-08T07:18:00.391Z,32.40
2022-12-08T07:20:27.137Z,36.53
2022-12-08T07:22:54.005Z,30.37
2022-12-08T07:25:20.459Z,37.93
2022-12-08T07:27:47.122Z,41.80
2022-12-08T07:30:14.142Z,29.20
2022-12-08T07:32:40.495Z,35.80
2022-12-08T07:35:08.231Z,29.03
2022-12-08T07:37:35.594Z,30.00
2022-12-08T07:40:02.336Z,37.03
2022-12-08T07:42:29.029Z,34.50
2022-12-08T07:44:55.564Z,64.53
2022-12-08T07:47:22.133Z,29.70
2022-12-08T07:49:48.445Z,37.23
2022-12-08T07:52:14.839Z,36.97
2022-12-08T07:54:41.154Z,33.73
2022-12-08T07:57:08.992Z,37.13
2022-12-08T07:59:35.620Z,49.80
2022-12-08T08:02:22.852Z,32.93
2022-12-08T08:04:51.573Z,35.33
2022-12-08T08:07:18.037Z,34.03
2022-12-08T08:09:45.532Z,34.33
2022-12-08T08:12:30.175Z,33.77
2022-12-08T08:14:57.386Z,28.60
2022-12-08T08:17:24.205Z,31.03
2022-12-08T08:19:50.632Z,28.10
2022-12-08T08:22:16.965Z,27.37
2022-12-08T08:24:45.165Z,40.63
2022-12-08T08:27:12.498Z,31.57
2022-12-08T08:29:38.862Z,28.53
2022-12-08T08:32:05.637Z,29.47
2022-12-08T08:34:34.293Z,32.87
2022-12-08T08:37:00.692Z,33.27
2022-12-08T08:39:27.142Z,32.50
2022-12-08T08:41:53.501Z,32.90
2022-12-08T08:44:19.841Z,34.23
2022-12-08T08:46:46.188Z,39.23
2022-12-08T08:49:13.073Z,33.80
2022-12-08T08:51:39.462Z,35.93
2022-12-08T08:54:05.843Z,31.33
2022-12-08T08:56:32.552Z,30.30
2022-12-08T08:58:59.010Z,29.53
2022-12-08T09:01:27.656Z,34.80
2022-12-08T09:03:55.420Z,37.97
2022-12-08T09:06:22.640Z,38.67
2022-12-08T09:08:50.057Z,38.90
2022-12-08T09:11:18.474Z,41.20
2022-12-08T09:13:48.380Z,35.03
2022-12-08T09:16:15.182Z,37.40
2022-12-08T09:18:41.905Z,34.43
2022-12-08T09:21:13.053Z,37.60
2022-12-08T09:23:39.421Z,41.97
2022-12-08T09:26:05.783Z,35.40
2022-12-08T09:28:32.779Z,42.57
2022-12-08T09:30:59.244Z,43.37
2022-12-08T09:33:25.658Z,50.00
2022-12-08T09:35:52.013Z,33.97
2022-12-08T09:38:18.558Z,42.77
2022-12-08T09:40:50.093Z,45.67
2022-12-08T09:43:40.896Z,44.47
2022-12-08T09:46:10.425Z,44.00
2022-12-08T09:48:44.511Z,39.43
2022-12-08T09:51:13.339Z,35.67
2022-12-08T09:53:48.251Z,37.60
2022-12-08T09:56:33.564Z,50.60
2022-12-08T09:59:03.858Z,50.70
2022-12-08T10:01:33.314Z,43.93
2022-12-08T10:04:01.008Z,42.23
2022-12-08T10:06:30.395Z,35.90
2022-12-08T10:09:38.052Z,40.00
2022-12-08T10:12:29.445Z,50.43
2022-12-08T10:15:17.915Z,35.63
2022-12-08T10:17:50.955Z,41.17
2022-12-08T10:20:26.155Z,46.00
2022-12-08T10:23:08.231Z,37.17
2022-12-08T10:26:00.881Z,37.80
2022-12-08T10:28:27.435Z,43.03
2022-12-08T10:30:53.903Z,39.63
2022-12-08T10:33:21.938Z,45.90
2022-12-08T10:35:58.342Z,47.57
2022-12-08T10:38:36.233Z,48.57
2022-12-08T10:41:11.694Z,40.40
2022-12-08T10:43:42.938Z,42.07
2022-12-08T10:46:19.587Z,38.50
2022-12-08T10:48:55.657Z,48.23
2022-12-08T10:51:25.204Z,40.60
2022-12-08T10:53:51.710Z,50.50
2022-12-08T10:56:18.109Z,33.80
2022-12-08T10:58:47.336Z,46.67
2022-12-08T11:01:26.328Z,44.73
2022-12-08T11:03:58.084Z,36.90
2022-12-08T11:06:30.400Z,44.17
2022-12-08T11:09:03.165Z,42.80
2022-12-08T11:11:50.222Z,47.00
2022-12-08T11:14:19.722Z,46.73
2022-12-08T11:16:46.328Z,40.80
2022-12-08T11:19:18.582Z,38.90
2022-12-08T11:21:46.089Z,48.23
2022-12-08T11:24:15.402Z,48.23
2022-12-08T11:26:50.074Z,37.40
2022-12-08T11:29:17.332Z,41.47
2022-12-08T11:31:49.861Z,31.73
2022-12-08T11:34:30.062Z,31.83
2022-12-08T11:36:57.367Z,29.60
2022-12-08T11:39:27.005Z,29.33
2022-12-08T11:41:56.420Z,32.93
2022-12-08T11:44:46.968Z,31.83
2022-12-08T11:47:25.362Z,26.77
2022-12-08T11:50:18.326Z,28.07
2022-12-08T11:52:49.884Z,27.23
2022-12-08T11:55:42.692Z,35.53
2022-12-08T11:58:38.759Z,35.27
2022-12-08T12:01:05.565Z,29.87
2022-12-08T12:03:43.693Z,31.60
2022-12-08T12:06:56.863Z,28.50
2022-12-08T12:09:29.218Z,32.00
2022-12-08T12:12:19.052Z,29.80
2022-12-08T12:15:10.061Z,29.33
2022-12-08T12:17:47.690Z,31.30
2022-12-08T12:20:20.964Z,23.00
2022-12-08T12:22:54.170Z,27.60
2022-12-08T12:25:23.704Z,27.53
2022-12-08T12:27:57.113Z,29.37
2022-12-08T12:30:26.499Z,27.67
2022-12-08T12:32:56.986Z,24.80
2022-12-08T12:35:28.956Z,23.03
2022-12-08T12:38:01.407Z,28.33
2022-12-08T12:40:34.017Z,26.87
2022-12-08T12:43:00.259Z,24.50
2022-12-08T12:45:31.924Z,31.70
2022-12-08T12:48:01.200Z,23.97
2022-12-08T12:50:33.880Z,26.00
2022-12-08T12:53:09.171Z,28.30
2022-12-08T12:55:53.865Z,23.57
2022-12-08T12:58:27.904Z,28.07
2022-12-08T13:01:19.948Z,21.33
2022-12-08T13:04:12.625Z,33.57
2022-12-08T13:06:46.766Z,28.40
2022-12-08T13:09:24.217Z,29.50
2022-12-08T13:11:54.763Z,18.80
2022-12-08T13:14:28.114Z,19.33
2022-12-08T13:16:57.483Z,20.53
2022-12-08T13:19:25.116Z,18.90
2022-12-08T13:21:51.464Z,22.90
2022-12-08T13:24:24.059Z,22.60
2022-12-08T13:27:10.994Z,20.50
2022-12-08T13:29:40.416Z,23.00
2022-12-08T13:32:09.678Z,23.47
2022-12-08T13:34:41.952Z,17.47
2022-12-08T13:37:11.327Z,19.70
2022-12-08T13:39:40.711Z,23.77
2022-12-08T13:42:19.102Z,19.10
2022-12-08T13:48:13.766Z,20.70
2022-12-08T13:53:00.054Z,20.33
2022-12-08T13:59:31.447Z,23.37
2022-12-08T14:02:04.310Z,20.10
2022-12-08T14:04:54.329Z,20.37
2022-12-08T14:07:18.457Z,17.70
2022-12-08T14:09:46.158Z,22.77
2022-12-08T14:12:20.517Z,21.43
2022-12-08T14:15:06.027Z,23.70
2022-12-08T14:17:33.479Z,18.97
2022-12-08T14:20:01.864Z,22.10
2022-12-08T14:22:37.348Z,21.20
2022-12-08T14:25:06.513Z,25.20
2022-12-08T14:27:37.171Z,21.63
2022-12-08T14:30:26.633Z,23.33
2022-12-08T14:32:58.766Z,24.57
2022-12-08T14:35:26.656Z,19.50
2022-12-08T14:37:57.166Z,23.67
2022-12-08T14:40:29.175Z,27.10
2022-12-08T14:43:07.546Z,21.33
2022-12-08T14:45:40.085Z,22.50
2022-12-08T14:48:31.418Z,20.30
2022-12-08T14:51:03.767Z,19.83
2022-12-08T14:53:56.284Z,22.40
2022-12-08T14:56:26.821Z,18.33
2022-12-08T14:59:07.941Z,20.40
2022-12-08T15:01:38.673Z,19.13
2022-12-08T15:04:17.692Z,18.13
2022-12-08T15:06:53.512Z,18.77
2022-12-08T15:09:34.165Z,21.50
2022-12-08T15:12:12.560Z,18.83
2022-12-08T15:14:53.811Z,19.47
2022-12-08T15:17:48.879Z,18.97
2022-12-08T15:20:35.852Z,20.60
2022-12-08T15:23:02.943Z,22.10
2022-12-08T15:25:32.468Z,16.57
2022-12-08T15:28:02.429Z,20.40
2022-12-08T15:30:29.638Z,22.50
2022-12-08T15:32:56.175Z,17.27
2022-12-08T15:35:22.687Z,19.97
2022-12-08T15:37:49.083Z,20.70
2022-12-08T15:40:18.813Z,24.43
2022-12-08T15:42:45.271Z,22.40
2022-12-08T15:45:15.941Z,19.83
2022-12-08T15:47:44.240Z,20.20
2022-12-08T15:50:17.074Z,26.07
2022-12-08T15:52:43.768Z,19.57
2022-12-08T15:55:18.434Z,21.70
2022-12-08T16:00:53.926Z,22.00
2022-12-08T16:09:32.996Z,24.27
2022-12-08T16:12:18.326Z,25.40
2022-12-08T16:17:32.065Z,24.77
2022-12-08T16:19:59.077Z,24.27
2022-12-08T16:25:20.210Z,19.20
2022-12-08T16:30:36.553Z,22.17
2022-12-08T16:33:02.877Z,29.07
2022-12-08T16:35:30.542Z,31.63
2022-12-08T16:37:57.434Z,28.80
2022-12-08T16:40:23.848Z,30.87
2022-12-08T16:42:50.528Z,25.60
2022-12-08T16:45:20.229Z,24.77
2022-12-08T16:47:49.050Z,21.67
2022-12-08T16:50:46.197Z,23.80
2022-12-08T16:53:13.038Z,23.40
2022-12-08T16:55:40.032Z,25.83
2022-12-08T16:58:06.796Z,23.67
2022-12-08T17:00:37.379Z,23.27
2022-12-08T17:03:10.779Z,24.93
2022-12-08T17:05:39.581Z,21.03
2022-12-08T17:08:05.944Z,25.67
2022-12-08T17:10:34.435Z,17.70
2022-12-08T17:13:02.145Z,25.00
2022-12-08T17:15:28.845Z,27.37
2022-12-08T17:17:55.229Z,20.93
2022-12-08T17:20:26.437Z,22.47
2022-12-08T17:22:58.937Z,23.10
2022-12-08T17:25:26.640Z,23.90
2022-12-08T17:27:53.130Z,22.60
2022-12-08T17:30:19.641Z,25.70
2022-12-08T17:32:45.986Z,25.43
2022-12-08T17:35:13.225Z,20.67
2022-12-08T17:37:39.570Z,28.80
2022-12-08T17:40:06.912Z,26.90
2022-12-08T17:42:33.540Z,26.80
2022-12-08T17:44:59.858Z,30.53
2022-12-08T17:47:26.185Z,29.10
2022-12-08T17:49:52.585Z,22.83
2022-12-08T17:52:18.963Z,24.30
2022-12-08T17:54:45.357Z,26.80
2022-12-08T17:57:11.695Z,23.33
2022-12-08T17:59:38.154Z,25.20
2022-12-08T18:02:04.652Z,20.93
2022-12-08T18:04:31.259Z,22.80
2022-12-08T18:07:00.107Z,21.67
2022-12-08T18:09:26.516Z,21.60
2022-12-08T18:11:52.943Z,21.57
2022-12-08T18:14:19.308Z,26.50
2022-12-08T18:16:46.903Z,20.83
2022-12-08T18:19:14.545Z,25.23
2022-12-08T18:21:41.546Z,27.90
2022-12-08T18:24:15.118Z,26.67
2022-12-08T18:26:41.690Z,26.63
2022-12-08T18:29:08.054Z,24.03
2022-12-08T18:31:34.387Z,23.80
2022-12-08T18:34:00.737Z,21.37
2022-12-08T18:36:27.076Z,25.90
2022-12-08T18:38:55.595Z,28.83
2022-12-08T18:41:25.566Z,23.07
2022-12-08T18:43:53.677Z,24.50
2022-12-08T18:46:20.291Z,25.43
2022-12-08T18:48:49.247Z,21.83
2022-12-08T18:51:21.235Z,27.10
2022-12-08T18:53:48.576Z,24.00
2022-12-08T18:56:34.495Z,28.83
2022-12-08T18:59:05.431Z,30.03
2022-12-08T19:01:33.953Z,22.60
2022-12-08T19:06:49.847Z,24.93
2022-12-08T19:09:17.331Z,33.23
2022-12-08T19:11:44.194Z,27.57
2022-12-08T19:14:10.977Z,25.67
2022-12-08T19:16:38.064Z,28.33
2022-12-08T19:19:05.013Z,27.33
2022-12-08T19:21:32.455Z,31.80
2022-12-08T19:23:59.855Z,31.57
2022-12-08T19:26:27.999Z,32.40
2022-12-08T19:28:54.687Z,32.83
2022-12-08T19:31:21.583Z,29.43
2022-12-08T19:33:47.987Z,25.97
2022-12-08T19:36:17.739Z,28.63
2022-12-08T19:39:02.786Z,32.23
2022-12-08T19:41:48.203Z,28.57
2022-12-08T19:44:52.862Z,29.40
2022-12-08T19:47:24.662Z,31.43
2022-12-08T19:49:52.087Z,37.97
2022-12-08T19:52:18.841Z,40.53
2022-12-08T19:54:45.231Z,45.00
2022-12-08T19:57:11.639Z,28.13
2022-12-08T19:59:39.276Z,25.67
2022-12-08T20:02:07.000Z,33.57
2022-12-08T20:04:33.406Z,29.00
2022-12-08T20:07:00.061Z,25.73
2022-12-08T20:09:26.499Z,28.03
2022-12-08T20:11:54.610Z,29.27
2022-12-08T20:14:22.940Z,28.63
2022-12-08T20:16:50.439Z,28.37
2022-12-08T20:19:17.581Z,29.67
2022-12-08T20:21:43.950Z,28.67
2022-12-08T20:24:10.418Z,28.03
2022-12-08T20:26:36.839Z,31.23
2022-12-08T20:29:03.283Z,32.03
2022-12-08T20:31:31.427Z,24.43
2022-12-08T20:33:57.842Z,30.70
2022-12-08T20:36:25.289Z,29.90
2022-12-08T20:38:53.087Z,32.93
2022-12-08T20:41:20.246Z,28.33
2022-12-08T20:43:47.864Z,27.17
2022-12-08T20:46:16.590Z,30.40
2022-12-08T20:48:44.164Z,32.60
2022-12-08T20:51:18.545Z,31.07
2022-12-08T20:53:45.670Z,33.23
2022-12-08T20:56:20.678Z,30.60
2022-12-08T20:58:47.730Z,28.67
2022-12-08T21:01:17.664Z,28.60
2022-12-08T21:03:45.216Z,30.37
2022-12-08T21:06:12.774Z,27.83
2022-12-08T21:08:40.427Z,27.20
2022-12-08T21:11:07.962Z,26.40
2022-12-08T21:13:34.635Z,22.57
2022-12-08T21:16:01.131Z,29.00
2022-12-08T21:18:27.682Z,31.00
2022-12-08T21:21:05.839Z,32.10
2022-12-08T21:23:33.681Z,28.23
2022-12-08T21:26:00.107Z,34.03
2022-12-08T21:28:44.738Z,29.37
2022-12-08T21:31:16.502Z,31.40
2022-12-08T21:33:50.788Z,29.80
2022-12-08T21:36:51.057Z,29.90
2022-12-08T21:39:17.622Z,27.53
2022-12-08T21:42:12.074Z,32.03
2022-12-08T21:44:38.981Z,28.10
2022-12-08T21:47:05.659Z,30.17
2022-12-08T21:49:40.101Z,30.17
2022-12-08T21:52:09.165Z,33.23
2022-12-08T21:54:35.925Z,26.27
2022-12-08T21:57:02.379Z,27.57
2022-12-08T21:59:28.789Z,28.33
2022-12-08T22:01:55.309Z,28.07
2022-12-08T22:04:22.431Z,30.10
2022-12-08T22:06:49.392Z,29.97
2022-12-08T22:09:15.981Z,29.93
2022-12-08T22:11:43.667Z,27.70
2022-12-08T22:14:14.400Z,32.00
2022-12-08T22:16:42.155Z,36.30
2022-12-08T22:19:08.758Z,39.10
2022-12-08T22:21:35.305Z,31.43
2022-12-08T22:24:01.805Z,27.47
2022-12-08T22:26:28.249Z,30.97
2022-12-08T22:28:54.674Z,30.90
2022-12-08T22:31:21.905Z,34.20
2022-12-08T22:33:49.488Z,28.73
2022-12-08T22:36:24.623Z,28.57
2022-12-08T22:38:52.077Z,26.73
2022-12-08T22:41:19.339Z,30.67
2022-12-08T22:43:46.838Z,29.63
2022-12-08T22:46:16.705Z,25.57
2022-12-08T22:48:43.787Z,30.97
2022-12-08T22:51:10.252Z,31.83
2022-12-08T22:53:37.139Z,29.27
2022-12-08T22:56:08.294Z,34.23
2022-12-08T22:58:35.339Z,30.93
2022-12-08T23:01:02.120Z,30.37
2022-12-08T23:03:28.758Z,27.30
2022-12-08T23:05:55.427Z,26.90
2022-12-08T23:08:25.173Z,29.77
2022-12-08T23:10:53.847Z,26.43
2022-12-08T23:13:21.220Z,28.53
2022-12-08T23:15:48.141Z,25.60
2022-12-08T23:18:18.765Z,29.83
2022-12-08T23:20:46.495Z,24.30
2022-12-08T23:23:13.851Z,27.90
2022-12-08T23:25:41.523Z,29.30
2022-12-08T23:28:08.379Z,26.53
2022-12-08T23:30:35.411Z,29.33
2022-12-08T23:33:02.262Z,25.37
2022-12-08T23:35:28.682Z,23.10
2022-12-08T23:37:55.037Z,26.33
2022-12-08T23:40:21.494Z,24.47
2022-12-08T23:42:48.433Z,26.43
2022-12-08T23:45:14.961Z,31.23
2022-12-08T23:47:41.448Z,21.30
2022-12-08T23:50:08.714Z,25.40
2022-12-08T23:52:35.369Z,21.27
2022-12-08T23:55:01.803Z,25.10
2022-12-08T23:57:28.627Z,28.53
2022-12-08T23:59:54.993Z,28.47
